Time;durP1;ratioP1;P1;durP2;ratioP2;P2;SDS_P1;SDS_P2;PMS_P1;PMS_P2;Temp;Humidity;BMP_temperature;BMP_pressure;BME280_temperature;BME280_humidity;BME280_pressure;Samples;Min_cycle;Max_cycle;Signal;HPM_P1;HPM_P2
2022/08/11 00:01:53;;;;;;;5.50;2.60;;;;;;;20.02;62.15;97181.69;4990077;28;20046;-73
2022/08/11 00:04:22;;;;;;;5.43;2.58;;;;;;;20.01;61.07;97184.72;4989576;28;20532;-73
2022/08/11 00:06:49;;;;;;;6.28;2.53;;;;;;;20.03;61.62;97183.31;4987760;28;20050;-73
2022/08/11 00:09:18;;;;;;;6.63;2.85;;;;;;;19.96;62.77;97171.19;5008764;28;20070;-73
2022/08/11 00:11:47;;;;;;;8.05;3.00;;;;;;;19.85;62.81;97170.50;4989647;28;20038;-73
2022/08/11 00:14:25;;;;;;;6.53;2.80;;;;;;;19.80;63.45;97173.28;4990616;28;20048;-73
2022/08/11 00:17:06;;;;;;;8.60;2.80;;;;;;;19.80;63.83;97177.91;4992130;28;20033;-73
2022/08/11 00:19:35;;;;;;;4.53;2.55;;;;;;;19.77;62.50;97173.88;4989302;28;20417;-73
2022/08/11 00:22:02;;;;;;;10.55;3.38;;;;;;;19.73;65.48;97173.63;4990950;28;20030;-73
2022/08/11 00:24:38;;;;;;;9.18;2.90;;;;;;;19.73;63.87;97181.78;4987633;28;20511;-73
2022/08/11 00:27:04;;;;;;;6.50;2.88;;;;;;;19.64;64.15;97174.56;4989964;28;20038;-73
2022/08/11 00:29:31;;;;;;;6.15;2.97;;;;;;;19.61;63.66;97173.25;4990657;28;20270;-73
2022/08/11 00:32:00;;;;;;;6.32;2.90;;;;;;;19.55;65.11;97174.34;4991103;28;20042;-73
2022/08/11 00:34:32;;;;;;;4.82;2.83;;;;;;;19.53;66.32;97181.16;4990353;28;20034;-72
2022/08/11 00:36:59;;;;;;;6.72;3.10;;;;;;;19.46;66.30;97190.47;4988584;28;20334;-73
2022/08/11 00:39:26;;;;;;;8.13;2.97;;;;;;;19.40;66.21;97179.94;4988775;28;20058;-73
2022/08/11 00:42:01;;;;;;;7.28;2.90;;;;;;;19.36;69.52;97178.91;4987676;28;20050;-73
2022/08/11 00:44:48;;;;;;;9.45;2.70;;;;;;;19.35;68.39;97169.94;4989470;28;20056;-73
2022/08/11 00:47:27;;;;;;;7.32;3.00;;;;;;;19.33;68.60;97157.78;4989708;28;20033;-73
2022/08/11 00:50:11;;;;;;;9.70;2.78;;;;;;;19.35;68.67;97166.44;4991341;28;20321;-73
2022/08/11 00:52:58;;;;;;;10.68;3.20;;;;;;;19.29;67.49;97164.84;4990863;28;20039;-73
2022/08/11 00:55:45;;;;;;;5.22;2.95;;;;;;;19.28;69.36;97171.38;4988397;28;20042;-73
2022/08/11 00:58:25;;;;;;;5.95;3.50;;;;;;;19.21;68.77;97172.53;4986890;28;20465;-73
2022/08/11 01:00:59;;;;;;;6.93;2.97;;;;;;;19.09;70.60;97174.81;4988696;28;20056;-73
2022/08/11 01:03:31;;;;;;;6.15;2.95;;;;;;;19.05;70.96;97178.38;4988023;28;20168;-73
2022/08/11 01:06:35;;;;;;;5.03;2.70;;;;;;;19.01;71.63;97174.63;4989620;28;20045;-73
2022/08/11 01:09:00;;;;;;;8.43;2.95;;;;;;;19.00;71.56;97183.88;5002369;28;21304;-73
2022/08/11 01:11:31;;;;;;;6.35;3.40;;;;;;;18.89;71.66;97177.72;4988428;28;20053;-73
2022/08/11 01:14:04;;;;;;;8.70;3.38;;;;;;;18.85;72.30;97184.81;4989292;28;20267;-73
2022/08/11 01:16:48;;;;;;;8.15;3.40;;;;;;;18.82;73.23;97182.63;4989026;28;20060;-73
2022/08/11 01:19:32;;;;;;;6.63;3.20;;;;;;;18.72;74.38;97193.56;4986334;28;20034;-73
2022/08/11 01:22:21;;;;;;;4.15;2.70;;;;;;;18.64;75.51;97193.06;4986321;28;20439;-73
2022/08/11 01:25:24;;;;;;;10.70;3.58;;;;;;;18.58;75.47;97183.34;4980370;28;20409;-73
2022/08/11 01:28:39;;;;;;;5.85;2.85;;;;;;;18.50;76.32;97183.94;4987991;28;20067;-73
2022/08/11 01:31:13;;;;;;;6.70;3.10;;;;;;;18.52;74.24;97180.94;4976800;28;20713;-72
2022/08/11 01:34:16;;;;;;;8.77;3.00;;;;;;;18.43;77.56;97177.22;4990142;28;20227;-73
2022/08/11 01:37:19;;;;;;;9.20;3.38;;;;;;;18.44;76.95;97187.75;4988676;28;20301;-73
2022/08/11 01:40:07;;;;;;;7.88;2.97;;;;;;;18.40;78.10;97189.44;4986611;28;20682;-73
2022/08/11 01:46:05;;;;;;;8.63;2.95;;;;;;;18.44;77.35;97193.19;4982543;28;20073;-73
2022/08/11 01:48:48;;;;;;;10.07;2.90;;;;;;;18.42;76.87;97186.44;4983326;28;20069;-73
2022/08/11 01:51:25;;;;;;;5.50;3.00;;;;;;;18.38;77.47;97187.00;4984002;28;20052;-73
2022/08/11 01:54:28;;;;;;;5.85;2.97;;;;;;;18.28;78.12;97186.25;4981918;28;20088;-73
2022/08/11 01:57:08;;;;;;;7.63;2.80;;;;;;;18.22;78.32;97181.97;4982735;28;20051;-72
2022/08/11 01:59:47;;;;;;;8.52;3.40;;;;;;;18.16;79.77;97183.06;4989168;28;20046;-72
2022/08/11 02:05:40;;;;;;;10.15;3.10;;;;;;;18.23;78.12;97189.81;4986935;28;20516;-73
2022/08/11 02:08:13;;;;;;;6.38;3.17;;;;;;;18.24;78.64;97186.00;5003551;28;20103;-72
2022/08/11 02:11:29;;;;;;;5.80;3.17;;;;;;;18.22;78.79;97188.19;4988612;28;20296;-73
2022/08/11 02:14:12;;;;;;;6.80;3.10;;;;;;;18.20;78.93;97184.13;4987688;28;20422;-73
2022/08/11 02:16:52;;;;;;;6.65;3.10;;;;;;;18.21;78.00;97188.44;4987715;28;20413;-73
2022/08/11 02:25:05;;;;;;;14.73;3.70;;;;;;;18.05;78.82;97185.84;4988400;28;20041;-73
2022/08/11 02:27:48;;;;;;;9.07;2.88;;;;;;;17.98;80.52;97189.94;4986766;28;20054;-72
2022/08/11 02:30:20;;;;;;;5.05;2.78;;;;;;;17.97;80.28;97196.41;4985871;28;20393;-73
2022/08/11 02:35:56;;;;;;;8.27;3.63;;;;;;;17.94;80.71;97192.38;4987614;28;20216;-73
2022/08/11 02:38:44;;;;;;;7.50;3.20;;;;;;;17.88;81.02;97189.97;4986791;28;20593;-72
2022/08/11 02:44:13;;;;;;;6.63;3.38;;;;;;;17.89;80.53;97183.47;4984618;28;20473;-72
2022/08/11 02:47:01;;;;;;;7.75;3.20;;;;;;;17.89;81.21;97178.84;4987961;28;20232;-72
2022/08/11 02:50:06;;;;;;;6.30;3.00;;;;;;;17.86;82.14;97192.97;4984798;28;20035;-73
2022/08/11 02:53:28;;;;;;;8.60;3.30;;;;;;;17.81;82.05;97182.13;4985127;28;20056;-72
2022/08/11 02:56:44;;;;;;;6.07;3.15;;;;;;;17.80;82.07;97178.63;4963867;28;20046;-72
2022/08/11 02:59:53;;;;;;;8.20;3.40;;;;;;;17.72;82.17;97179.19;4978182;28;20056;-73
2022/08/11 03:02:47;;;;;;;5.68;3.58;;;;;;;17.73;82.69;97186.22;4986874;28;20081;-73
2022/08/11 03:05:47;;;;;;;7.32;3.25;;;;;;;17.70;82.90;97184.09;4985914;28;20080;-73
2022/08/11 03:08:21;;;;;;;9.63;4.57;;;;;;;17.66;81.80;97179.47;4988546;28;20046;-73
2022/08/11 03:17:14;;;;;;;6.28;3.00;;;;;;;17.58;82.53;97182.72;4987386;28;20148;-73
2022/08/11 03:20:18;;;;;;;8.82;3.20;;;;;;;17.59;83.26;97178.94;4987061;28;20456;-73
2022/08/11 03:22:56;;;;;;;5.75;3.28;;;;;;;17.57;82.99;97175.72;4978429;28;20042;-73
2022/08/11 03:25:30;;;;;;;7.93;2.90;;;;;;;17.52;83.71;97174.66;4987366;28;20172;-73
2022/08/11 03:28:36;;;;;;;6.75;3.20;;;;;;;17.54;83.28;97177.88;4990532;28;20045;-73
2022/08/11 03:31:27;;;;;;;6.60;3.10;;;;;;;17.49;83.48;97180.59;4985571;28;20050;-72
2022/08/11 03:34:01;;;;;;;11.18;3.53;;;;;;;17.50;83.00;97171.41;4986610;28;20037;-72
2022/08/11 03:36:32;;;;;;;4.93;2.88;;;;;;;17.49;83.64;97168.97;4988605;28;20047;-73
2022/08/11 03:38:58;;;;;;;;;;;;;;;17.47;84.01;97182.78;4985948;28;20179;-72
2022/08/11 03:41:58;;;;;;;6.30;3.47;;;;;;;17.42;84.09;97171.16;4986184;28;19929;-73
2022/08/11 03:44:23;;;;;;;7.57;3.22;;;;;;;17.37;83.07;97169.28;4984905;28;20045;-72
2022/08/11 03:47:07;;;;;;;8.35;3.10;;;;;;;17.35;84.44;97176.84;4985280;28;20049;-72
2022/08/11 03:49:59;;;;;;;8.27;3.20;;;;;;;17.32;85.16;97179.31;4986957;28;20500;-73
2022/08/11 03:53:15;;;;;;;7.80;3.60;;;;;;;17.31;85.01;97174.97;4985288;28;20088;-72
2022/08/11 03:55:50;;;;;;;7.95;3.20;;;;;;;17.33;84.58;97181.72;4956865;28;20640;-73
2022/08/11 03:58:35;;;;;;;5.72;2.92;;;;;;;17.26;85.24;97182.00;4986646;28;20041;-73
2022/08/11 04:01:33;;;;;;;5.88;3.00;;;;;;;17.19;85.70;97176.06;4984683;28;20041;-73
2022/08/11 04:04:34;;;;;;;6.97;2.85;;;;;;;17.20;85.64;97182.31;4985243;28;20053;-73
2022/08/11 04:07:44;;;;;;;9.60;3.58;;;;;;;17.17;86.30;97177.44;4986387;28;20108;-73
2022/08/11 04:10:30;;;;;;;8.48;3.35;;;;;;;17.12;85.83;97182.84;4982895;28;20592;-73
2022/08/11 04:13:08;;;;;;;6.93;3.08;;;;;;;17.13;86.70;97181.78;4986451;28;20287;-73
2022/08/11 04:15:59;;;;;;;14.20;3.60;;;;;;;17.10;85.80;97179.59;4986164;28;20129;-73
2022/08/11 04:18:57;;;;;;;8.63;3.42;;;;;;;17.10;86.13;97179.59;4986757;28;20651;-73
2022/08/11 04:21:42;;;;;;;11.10;3.30;;;;;;;17.11;85.81;97186.63;4990124;28;21090;-73
2022/08/11 04:24:07;;;;;;;6.78;3.40;;;;;;;17.14;85.01;97178.00;4988403;28;20038;-72
2022/08/11 04:26:52;;;;;;;8.00;3.10;;;;;;;17.19;86.08;97189.59;4990407;28;20441;-72
2022/08/11 04:30:04;;;;;;;7.28;3.08;;;;;;;17.12;87.08;97190.94;4984886;28;20354;-73
2022/08/11 04:33:01;;;;;;;5.35;3.33;;;;;;;17.14;86.65;97186.09;4965965;28;20799;-73
2022/08/11 04:36:10;;;;;;;5.75;2.85;;;;;;;17.15;86.60;97185.00;4985536;28;20056;-72
2022/08/11 04:39:10;;;;;;;5.03;2.67;;;;;;;17.15;86.94;97185.00;4987171;28;20657;-73
2022/08/11 04:45:09;;;;;;;9.60;3.35;;;;;;;17.17;87.88;97188.25;4985836;28;20048;-73
2022/08/11 05:05:29;;;;;;;8.35;3.10;;;;;;;17.17;88.38;97191.75;4987498;28;20088;-73
2022/08/11 05:07:10;;;;;;;12.00;2.97;;;;;;;17.20;88.13;97198.53;4988037;28;20475;-72
2022/08/11 05:09:58;;;;;;;5.70;3.20;;;;;;;17.22;88.26;97199.06;4987112;28;20050;-73
2022/08/11 05:12:29;;;;;;;7.43;3.17;;;;;;;17.23;89.08;97198.78;4989148;28;20038;-73
2022/08/11 05:35:00;;;;;;;7.47;3.00;;;;;;;17.78;86.04;97199.75;4988184;28;20042;-73
2022/08/11 05:37:29;;;;;;;5.85;3.28;;;;;;;17.86;86.58;97208.38;4989810;28;20073;-73
2022/08/11 05:57:27;;;;;;;5.10;2.90;;;;;;;18.48;85.29;97223.25;4988126;28;20248;-73
2022/08/11 06:00:09;;;;;;;7.82;3.45;;;;;;;18.55;85.09;97221.03;4987543;28;20042;-73
2022/08/11 06:02:41;;;;;;;12.85;3.58;;;;;;;18.63;84.40;97221.25;5005052;28;20167;-73
2022/08/11 06:05:08;;;;;;;9.15;3.45;;;;;;;18.73;84.63;97225.00;4986448;28;20030;-73
2022/08/11 06:07:34;;;;;;;8.70;2.85;;;;;;;18.83;84.35;97222.22;4985628;28;20244;-74
2022/08/11 06:09:59;;;;;;;6.07;3.05;;;;;;;18.89;85.22;97221.09;4988107;28;20050;-73
2022/08/11 06:12:31;;;;;;;7.63;3.30;;;;;;;19.00;84.73;97224.53;4988455;28;20037;-73
2022/08/11 06:15:01;;;;;;;6.72;3.45;;;;;;;19.09;84.47;97220.13;4988373;28;20042;-73
2022/08/11 06:17:30;;;;;;;5.20;3.05;;;;;;;19.18;83.08;97229.25;4988262;28;20042;-73
2022/08/11 06:20:10;;;;;;;8.88;3.33;;;;;;;19.30;84.09;97223.44;4988674;28;20073;-73
2022/08/11 06:22:36;;;;;;;8.93;3.20;;;;;;;19.42;83.04;97229.31;4988650;28;20053;-72
2022/08/11 06:25:03;;;;;;;9.95;3.28;;;;;;;19.48;82.51;97225.47;4992590;28;20026;-73
2022/08/11 06:27:31;;;;;;;9.50;3.15;;;;;;;19.58;82.72;97222.66;4988143;28;20147;-73
2022/08/11 06:29:57;;;;;;;7.85;3.58;;;;;;;19.71;80.74;97232.03;4989118;28;20133;-73
2022/08/11 06:32:26;;;;;;;5.22;2.60;;;;;;;19.82;80.22;97219.16;4987772;28;20057;-73
2022/08/11 06:35:06;;;;;;;5.43;2.78;;;;;;;19.90;79.05;97222.03;4987474;28;20690;-73
2022/08/11 06:37:46;;;;;;;9.98;3.03;;;;;;;20.00;79.65;97227.34;4987859;28;20045;-73
2022/08/11 06:41:29;;;;;;;7.18;2.85;;;;;;;20.09;77.78;97224.81;4984145;28;20057;-72
2022/08/11 06:43:48;;;;;;;12.15;3.20;;;;;;;20.24;76.37;97215.66;4986738;28;20046;-73
2022/08/11 06:46:22;;;;;;;7.35;3.20;;;;;;;20.35;75.96;97219.84;4987454;28;20544;-73
2022/08/11 06:48:49;;;;;;;13.45;4.13;;;;;;;20.41;77.32;97213.22;4986771;28;20050;-73
2022/08/11 06:51:15;;;;;;;48.17;4.65;;;;;;;20.48;75.29;97218.34;4985310;28;20030;-73
2022/08/11 06:53:55;;;;;;;13.98;3.28;;;;;;;20.55;77.60;97216.06;4984548;28;20311;-73
2022/08/11 07:02:10;;;;;;;6.40;2.75;;;;;;;20.84;74.77;97224.84;4985559;28;20073;-73
2022/08/11 07:04:38;;;;;;;11.38;3.03;;;;;;;20.96;71.00;97227.13;4987041;28;20615;-72
2022/08/11 07:16:30;;;;;;;8.88;3.10;;;;;;;21.30;65.96;97210.50;4989409;28;20640;-72
2022/08/11 07:30:27;;;;;;;5.43;2.72;;;;;;;21.55;64.30;97216.59;4975900;28;20151;-73
2022/08/11 07:32:56;;;;;;;7.60;2.80;;;;;;;21.62;62.92;97214.28;4986538;28;20030;-72
2022/08/11 07:35:35;;;;;;;9.75;2.97;;;;;;;21.65;62.77;97214.50;4985894;28;20639;-73
2022/08/11 07:38:15;;;;;;;6.28;2.78;;;;;;;21.75;63.64;97216.22;4987806;28;20452;-73
2022/08/11 07:40:42;;;;;;;8.00;3.15;;;;;;;21.88;64.96;97211.91;4987478;28;20041;-72
2022/08/11 07:43:09;;;;;;;9.43;2.63;;;;;;;21.93;60.52;97209.06;4984942;28;20089;-72
2022/08/11 07:54:04;;;;;;;13.00;2.90;;;;;;;22.25;59.67;97197.25;4987701;28;20631;-72
2022/08/11 07:56:37;;;;;;;5.05;2.65;;;;;;;22.39;60.77;97203.47;4989332;28;20065;-73
2022/08/11 08:18:23;;;;;;;4.68;2.55;;;;;;;23.01;58.19;97208.34;4987112;28;20125;-73
2022/08/11 08:20:50;;;;;;;5.80;2.60;;;;;;;23.06;56.24;97208.25;4990521;28;20148;-73
2022/08/11 08:23:31;;;;;;;5.88;2.70;;;;;;;22.99;54.88;97216.84;4989081;28;20408;-72
2022/08/11 08:26:01;;;;;;;8.93;2.78;;;;;;;23.07;57.27;97224.28;5010025;28;20525;-72
2022/08/11 08:28:28;;;;;;;4.85;2.40;;;;;;;23.21;54.86;97220.69;4988105;28;20052;-73
2022/08/11 08:30:57;;;;;;;12.73;2.92;;;;;;;23.31;52.76;97225.91;4990498;28;20057;-73
2022/08/11 08:33:26;;;;;;;7.20;2.47;;;;;;;23.45;53.44;97218.44;4984452;28;20089;-73
2022/08/11 08:36:10;;;;;;;7.07;2.50;;;;;;;23.55;51.43;97223.63;4989661;28;20038;-73
2022/08/11 08:39:02;;;;;;;5.35;2.90;;;;;;;23.63;48.03;97219.34;4991174;28;20046;-73
2022/08/11 08:41:31;;;;;;;6.60;2.30;;;;;;;23.67;48.75;97214.09;4988196;28;20237;-73
2022/08/11 08:44:01;;;;;;;4.68;2.63;;;;;;;23.72;48.24;97224.84;4989835;28;20038;-73
2022/08/11 08:46:33;;;;;;;;;;;;;;;23.72;48.70;97222.91;4989720;28;20500;-76
2022/08/11 08:49:01;;;;;;;6.03;2.40;;;;;;;23.89;48.27;97216.72;4989027;28;20007;-73
2022/08/11 08:51:34;;;;;;;5.63;2.50;;;;;;;24.01;48.71;97219.66;4988271;28;20050;-72
2022/08/11 08:54:08;;;;;;;10.90;2.70;;;;;;;23.99;46.61;97221.13;4986106;28;20053;-73
2022/08/11 08:56:37;;;;;;;6.63;2.50;;;;;;;23.76;46.36;97223.13;4989556;28;20294;-73
2022/08/11 08:59:04;;;;;;;4.03;2.05;;;;;;;23.75;46.98;97221.50;4986729;28;20410;-72
2022/08/11 09:01:47;;;;;;;10.18;2.53;;;;;;;23.79;46.87;97223.28;4989255;28;20046;-73
2022/08/11 09:04:14;;;;;;;8.30;2.70;;;;;;;23.99;47.56;97227.38;4986731;28;20054;-73
2022/08/11 09:06:43;;;;;;;5.28;2.70;;;;;;;24.09;46.50;97227.09;4989763;28;20045;-72
2022/08/11 09:09:13;;;;;;;4.97;2.60;;;;;;;24.25;47.19;97227.44;4979967;28;20045;-73
2022/08/11 09:11:52;;;;;;;7.05;2.60;;;;;;;24.21;45.16;97214.75;4991686;28;20033;-72
2022/08/11 09:14:59;;;;;;;6.07;2.65;;;;;;;24.26;43.74;97217.31;4990890;28;20065;-73
2022/08/11 09:17:12;;;;;;;7.32;2.63;;;;;;;24.37;45.23;97215.94;4990366;28;20054;-72
2022/08/11 09:19:38;;;;;;;4.72;3.10;;;;;;;24.48;46.76;97210.94;4989274;28;20361;-72
2022/08/11 09:27:38;;;;;;;7.88;2.70;;;;;;;24.29;43.65;97209.28;4987309;28;20050;-73
2022/08/11 09:30:05;;;;;;;6.72;2.28;;;;;;;24.49;43.57;97218.03;4987542;28;20046;-73
2022/08/11 09:32:33;;;;;;;6.60;2.70;;;;;;;24.26;42.58;97214.59;4989194;28;20084;-73
2022/08/11 09:35:01;;;;;;;6.72;2.95;;;;;;;24.53;44.03;97200.66;4987525;28;20227;-72
2022/08/11 09:40:29;;;;;;;22.23;4.40;;;;;;;24.91;52.46;97202.78;4990207;28;20500;-79
2022/08/11 09:45:50;;;;;;;7.68;2.80;;;;;;;25.11;60.48;97191.16;4986134;28;20104;-71
2022/08/11 09:48:18;;;;;;;5.07;2.80;;;;;;;25.17;56.19;97187.13;4987148;28;20041;-71
2022/08/11 09:50:49;;;;;;;8.23;3.40;;;;;;;25.30;46.70;97184.53;4986351;28;20042;-72
2022/08/11 09:53:16;;;;;;;7.18;2.70;;;;;;;25.34;69.24;97199.97;4989404;28;20056;-71
2022/08/11 09:55:44;;;;;;;7.72;3.08;;;;;;;25.41;45.24;97178.38;4988612;28;20136;-71
2022/08/11 09:58:14;;;;;;;5.30;2.72;;;;;;;25.55;42.73;97180.91;4986576;28;20112;-72
2022/08/11 10:00:42;;;;;;;6.97;3.03;;;;;;;25.62;64.57;97186.69;4988454;28;20057;-72
2022/08/11 10:03:27;;;;;;;6.25;3.10;;;;;;;25.64;50.25;97184.41;4989013;28;20499;-71
2022/08/11 10:08:46;;;;;;;7.60;3.17;;;;;;;25.61;41.22;97179.59;4986223;28;20120;-72
2022/08/11 10:11:16;;;;;;;10.27;3.60;;;;;;;25.80;50.54;97191.00;4988264;28;20046;-72
2022/08/11 10:16:34;;;;;;;6.95;3.38;;;;;;;26.07;43.97;97181.50;4986667;28;20050;-71
2022/08/11 10:19:03;;;;;;;7.85;3.40;;;;;;;26.11;38.36;97171.47;4989250;28;20081;-72
2022/08/11 10:21:35;;;;;;;7.50;2.95;;;;;;;26.32;42.06;97182.47;4985479;28;20480;-72
2022/08/11 10:34:48;;;;;;;7.80;3.20;;;;;;;27.03;38.65;97178.06;4984377;28;20180;-72
2022/08/11 10:37:16;;;;;;;9.35;2.88;;;;;;;27.16;42.02;97169.56;4986762;28;20095;-71
2022/08/11 10:39:43;;;;;;;6.10;2.75;;;;;;;27.34;46.75;97167.44;5005029;28;20085;-72
2022/08/11 10:44:57;;;;;;;8.30;3.25;;;;;;;27.66;41.22;97164.97;4987685;28;20046;-71
2022/08/11 10:47:33;;;;;;;5.72;3.15;;;;;;;28.02;35.36;97156.75;4987240;28;20092;-72
2022/08/11 11:01:07;;;;;;;9.15;2.97;;;;;;;28.60;36.13;97148.31;4984193;28;20066;-72
2022/08/11 11:03:34;;;;;;;8.07;3.22;;;;;;;29.00;38.90;97140.00;4985233;28;20128;-72
2022/08/11 11:06:08;;;;;;;6.53;3.10;;;;;;;29.68;32.10;97141.81;4985477;28;20046;-72
2022/08/11 11:08:53;;;;;;;7.68;3.88;;;;;;;30.54;33.06;97133.56;4985081;28;20250;-72
2022/08/11 11:19:38;;;;;;;6.15;3.20;;;;;;;35.37;28.06;97116.69;4985512;28;20033;-72
2022/08/11 11:25:21;;;;;;;7.20;3.08;;;;;;;36.42;19.68;97119.06;4986191;28;20105;-72
2022/08/11 11:28:17;;;;;;;8.30;3.17;;;;;;;37.47;21.94;97104.25;4983072;28;20538;-72
2022/08/11 11:31:10;;;;;;;9.15;3.42;;;;;;;38.92;20.76;97099.25;4988687;28;20231;-72
2022/08/11 11:34:02;;;;;;;6.03;3.17;;;;;;;39.80;22.13;97099.16;4992206;28;20076;-72
2022/08/11 11:36:44;;;;;;;6.18;3.33;;;;;;;40.60;21.75;97102.91;4990336;28;20052;-72
2022/08/11 11:39:10;;;;;;;5.25;3.33;;;;;;;40.33;17.44;97094.63;4988245;28;20070;-72
2022/08/11 11:41:36;;;;;;;6.82;3.00;;;;;;;39.86;18.20;97096.66;5004564;28;20088;-72
2022/08/11 11:44:03;;;;;;;9.75;3.15;;;;;;;39.91;20.30;97086.97;4989154;28;20372;-72
2022/08/11 11:46:30;;;;;;;9.48;3.50;;;;;;;41.27;17.46;97079.47;5004061;28;20097;-72
2022/08/11 11:48:59;;;;;;;9.35;3.53;;;;;;;41.09;16.54;97083.47;4987153;28;20050;-72
2022/08/11 11:51:26;;;;;;;6.18;3.00;;;;;;;41.42;16.85;97089.94;4986751;28;20409;-73
2022/08/11 11:53:52;;;;;;;10.30;3.20;;;;;;;39.70;17.97;97085.34;4988515;28;20061;-72
2022/08/11 11:56:20;;;;;;;6.57;3.15;;;;;;;40.47;18.86;97085.19;4989374;28;20517;-72
2022/08/11 12:01:32;;;;;;;10.73;3.30;;;;;;;42.92;16.52;97076.75;4985069;28;20762;-72
2022/08/11 12:04:02;;;;;;;7.95;2.97;;;;;;;43.67;16.05;97071.59;4987459;28;20093;-73
2022/08/11 12:06:28;;;;;;;5.88;2.90;;;;;;;43.46;16.76;97073.88;4987499;28;20420;-73
2022/08/11 12:08:56;;;;;;;7.03;3.58;;;;;;;41.91;15.94;97066.69;4987403;28;20042;-72
2022/08/11 12:14:10;;;;;;;8.82;3.50;;;;;;;41.70;15.51;97063.16;4991036;28;20638;-72
2022/08/11 12:16:38;;;;;;;11.57;3.28;;;;;;;41.09;15.62;97061.03;4992350;28;20404;-72
2022/08/11 12:19:11;;;;;;;6.53;2.80;;;;;;;42.77;17.57;97059.50;4989765;28;20033;-72
2022/08/11 12:27:19;;;;;;;12.25;3.28;;;;;;;44.35;16.00;97053.94;4989521;28;20050;-72
2022/08/11 12:27:19;;;;;;;8.40;3.50;;;;;;;43.95;15.86;97039.66;4991374;28;20042;-72
2022/08/11 12:29:48;;;;;;;8.38;3.30;;;;;;;43.85;16.06;97044.41;4989271;28;20681;-72
2022/08/11 12:32:14;;;;;;;14.60;3.67;;;;;;;43.31;15.21;97036.13;4991404;28;20390;-72
2022/08/11 12:34:39;;;;;;;8.32;3.17;;;;;;;42.62;15.41;97039.44;4991254;28;20076;-72
2022/08/11 12:37:11;;;;;;;11.32;3.20;;;;;;;42.26;16.78;97032.03;4991426;28;20048;-72
2022/08/11 12:45:28;;;;;;;5.65;3.00;;;;;;;44.24;14.47;97019.72;4992575;28;20042;-73
2022/08/11 12:54:06;;;;;;;9.45;3.15;;;;;;;42.45;14.89;97016.22;4989076;28;20042;-72
2022/08/11 13:04:58;;;;;;;9.00;3.13;;;;;;;43.68;15.83;97005.56;4989072;28;20033;-72
2022/08/11 13:07:29;;;;;;;7.05;2.75;;;;;;;44.38;14.39;97009.94;4991071;28;20052;-72
2022/08/11 13:09:56;;;;;;;7.35;2.88;;;;;;;44.46;14.07;97008.44;4988429;28;20473;-72
2022/08/11 13:15:10;;;;;;;8.05;2.90;;;;;;;42.84;15.76;96992.56;4987912;28;20156;-72
2022/08/11 13:17:37;;;;;;;6.05;3.15;;;;;;;44.02;15.42;96996.34;5007488;28;20053;-72
2022/08/11 13:20:05;;;;;;;5.32;2.58;;;;;;;44.79;15.33;97000.31;4989651;28;20034;-71
2022/08/11 13:22:30;;;;;;;5.93;2.97;;;;;;;44.48;14.41;97001.06;4988849;28;20212;-72
2022/08/11 13:24:57;;;;;;;8.40;2.80;;;;;;;45.58;13.58;97005.66;4984865;28;20537;-72
2022/08/11 13:27:23;;;;;;;9.13;3.00;;;;;;;45.10;13.25;96991.84;4990590;28;20045;-72
2022/08/11 13:31:09;;;;;;;6.93;2.63;;;;;;;45.61;12.47;96987.75;4986228;28;20113;-72
2022/08/11 13:32:39;;;;;;;7.72;2.80;;;;;;;45.47;13.11;96994.81;4986581;28;20050;-72
2022/08/11 13:35:05;;;;;;;7.00;2.83;;;;;;;45.82;14.99;96995.34;4987290;28;20042;-72
2022/08/11 13:37:33;;;;;;;8.07;2.92;;;;;;;44.66;14.36;96991.16;4989511;28;20361;-72
2022/08/11 13:40:01;;;;;;;4.93;2.40;;;;;;;44.31;15.66;96988.44;4990462;28;20497;-73
2022/08/11 13:42:27;;;;;;;12.80;2.80;;;;;;;43.70;14.92;96989.78;4989196;28;20049;-73
2022/08/11 13:44:55;;;;;;;6.28;2.92;;;;;;;44.12;13.69;96983.88;4989295;28;20050;-72
2022/08/11 13:47:23;;;;;;;6.75;3.00;;;;;;;45.32;14.47;96982.53;4988940;28;20037;-72
2022/08/11 13:49:50;;;;;;;6.80;2.70;;;;;;;44.58;15.46;96992.69;4984704;28;20076;-72
2022/08/11 13:52:17;;;;;;;9.02;2.75;;;;;;;44.48;15.34;96981.31;4987892;28;20634;-72
2022/08/11 13:54:45;;;;;;;6.18;2.80;;;;;;;44.83;12.76;96975.59;4991316;28;20060;-72
2022/08/11 13:57:13;;;;;;;6.82;2.90;;;;;;;44.33;14.70;96980.28;4988794;28;20030;-72
2022/08/11 13:59:40;;;;;;;11.07;2.83;;;;;;;44.57;14.88;96969.34;4990290;28;20449;-72
2022/08/11 14:02:13;;;;;;;4.15;2.65;;;;;;;45.69;13.69;96967.22;4988198;28;20049;-72
2022/08/11 14:04:44;;;;;;;8.95;2.78;;;;;;;45.46;14.23;96976.28;4986281;28;20558;-73
2022/08/11 14:07:13;;;;;;;9.52;2.75;;;;;;;43.51;13.75;96968.34;4988961;28;20504;-71
2022/08/11 14:09:42;;;;;;;8.10;2.92;;;;;;;42.30;13.74;96958.81;4986037;28;20038;-70
2022/08/11 14:15:31;;;;;;;8.98;2.83;;;;;;;43.87;13.05;96948.94;4985979;28;20129;-71
2022/08/11 14:18:04;;;;;;;6.32;2.65;;;;;;;44.04;13.70;96954.38;4989142;28;20402;-70
2022/08/11 14:23:25;;;;;;;;;;;;;;;43.02;16.20;96944.16;4985878;28;20042;-71
2022/08/11 14:28:37;;;;;;;6.55;2.80;;;;;;;43.94;15.88;96936.63;4988219;28;20220;-70
2022/08/11 14:31:07;;;;;;;7.80;2.70;;;;;;;44.49;13.80;96939.81;4986842;28;20372;-70
2022/08/11 14:33:34;;;;;;;6.32;2.72;;;;;;;43.21;16.14;96939.53;4988134;28;20034;-70
2022/08/11 14:36:04;;;;;;;7.95;3.10;;;;;;;43.61;14.97;96944.63;4989820;28;20037;-70
2022/08/11 14:38:30;;;;;;;7.65;2.97;;;;;;;43.28;15.04;96928.03;4986999;28;20537;-70
2022/08/11 14:49:15;;;;;;;11.90;3.20;;;;;;;40.70;17.11;96932.06;4985415;28;20431;-70
2022/08/11 14:51:41;;;;;;;9.18;2.60;;;;;;;41.22;15.06;96917.19;4988331;28;20489;-70
2022/08/11 14:56:53;;;;;;;8.05;2.72;;;;;;;42.90;14.76;96918.84;4985503;28;20046;-70
2022/08/11 14:59:20;;;;;;;7.63;2.83;;;;;;;42.46;17.00;96918.59;4985785;28;20064;-70
2022/08/11 15:04:30;;;;;;;13.10;3.25;;;;;;;40.64;16.73;96918.56;4987020;28;20053;-70
2022/08/11 15:06:56;;;;;;;8.13;2.90;;;;;;;40.98;17.11;96917.38;4988550;28;20046;-70
2022/08/11 15:09:22;;;;;;;11.40;3.10;;;;;;;39.93;17.39;96917.28;4987402;28;20096;-70
2022/08/11 15:17:16;;;;;;;8.30;3.38;;;;;;;39.98;17.91;96915.97;4984863;28;20042;-70
2022/08/11 15:24:18;;;;;;;5.40;3.00;;;;;;;39.77;17.90;96918.00;4985103;28;20046;-70
2022/08/11 15:25:14;;;;;;;6.57;3.00;;;;;;;40.71;16.52;96905.63;4986557;28;20034;-71
2022/08/11 15:39:21;;;;;;;9.85;3.15;;;;;;;40.17;18.53;96906.00;4986577;28;20034;-70
2022/08/11 15:47:27;;;;;;;7.22;2.80;;;;;;;38.54;19.02;96904.84;4986449;28;20433;-70
2022/08/11 15:49:57;;;;;;;8.10;2.85;;;;;;;38.07;18.10;96901.88;4981254;28;20058;-70
2022/08/11 15:52:30;;;;;;;6.07;3.13;;;;;;;37.05;17.61;96894.16;4986562;28;20049;-70
2022/08/11 15:55:01;;;;;;;6.57;2.85;;;;;;;37.42;20.21;96892.63;4638917;28;10000601;-70
2022/08/11 16:05:46;;;;;;;6.13;2.97;;;;;;;38.18;17.61;96878.16;4981851;28;20041;-70
2022/08/11 16:08:15;;;;;;;6.35;3.20;;;;;;;37.81;17.79;96878.25;4985479;28;20045;-70
2022/08/11 16:10:42;;;;;;;5.97;2.80;;;;;;;37.19;21.51;96876.50;4985084;28;20038;-70
2022/08/11 16:18:40;;;;;;;4.95;2.90;;;;;;;36.07;21.53;96866.53;4988098;28;20176;-70
2022/08/11 16:21:09;;;;;;;10.20;3.38;;;;;;;36.44;19.72;96868.75;4987088;28;20573;-70
2022/08/11 16:23:39;;;;;;;9.52;3.30;;;;;;;36.38;20.33;96870.38;4952240;28;20049;-70
2022/08/11 16:26:07;;;;;;;5.97;3.20;;;;;;;36.12;20.52;96866.91;4986131;28;20128;-70
2022/08/11 16:28:35;;;;;;;10.95;2.97;;;;;;;36.43;21.14;96861.59;5006230;28;20487;-71
2022/08/11 16:31:01;;;;;;;8.43;2.95;;;;;;;36.97;20.23;96859.97;4988429;28;20073;-70
2022/08/11 16:33:29;;;;;;;12.48;3.47;;;;;;;36.38;19.62;96870.38;4987278;28;20678;-70
2022/08/11 16:38:41;;;;;;;5.45;3.28;;;;;;;36.34;18.46;96863.97;4986232;28;20073;-70
2022/08/11 16:41:10;;;;;;;10.45;3.72;;;;;;;36.47;20.61;96856.75;4988291;28;20479;-70
2022/08/11 16:49:19;;;;;;;8.07;3.55;;;;;;;36.24;20.63;96848.94;4986154;28;20046;-70
2022/08/11 16:51:45;;;;;;;8.35;3.40;;;;;;;35.37;22.11;96863.56;4987249;28;20673;-70
2022/08/11 16:54:12;;;;;;;6.95;3.50;;;;;;;35.33;20.86;96854.44;4987872;28;20052;-72
2022/08/11 16:56:51;;;;;;;7.63;3.08;;;;;;;34.62;21.11;96863.59;4989554;28;20251;-72
2022/08/11 16:59:28;;;;;;;9.27;3.20;;;;;;;33.42;23.87;96851.72;4988587;28;20038;-72
2022/08/11 17:02:05;;;;;;;5.25;3.13;;;;;;;33.48;25.35;96854.94;4988551;28;20844;-72
2022/08/11 17:13:08;;;;;;;7.43;3.25;;;;;;;33.45;23.26;96853.72;4989020;28;20045;-72